Old Greenwich, CT (06870)

10:43 PM EDT on August 30, 2014 (GMT -0400)
Shippan | Change Station
CLOSE
Current Station
Personal Weather Station
Location: Stamford, CT
Elevation: 26 ft
Nearby Weather Stations

Elev 26 ft 41.04 °N, 73.53 °W | Updated 36 seconds ago

Overcast
Overcast
73.8 °F
Feels Like 73 °F
N
0.0
Wind Variable Wind from South
Gusts 2.2 mph

Today
High -- | Low -- °F
--% Chance of Precip.
Yesterday
High -- | Low -- °F
Precip. -- in
6:18 AM 7:30 PM
Waxing Crescent, 26% visible
Pressure 30.16 in
Visibility 10.0 miles
Clouds Few 2600 ft
Mostly Cloudy 3200 ft
Heat Index 73 °F
Dew Point 69 °F
Humidity 86%
Rainfall 0.00 in
Snow Depth Not available.
UV 0 out of 12
Pollen 7.70 out of 12
Air Quality Not available.
Flu Activity Not available.
METAR KHPN 310156Z 17006KT 10SM FEW026 BKN032 22/18 A3017 RMK AO2 SLP211 T02220183

More Conditions Fewer Conditions

Pressure 30.16 in
Visibility 10.0 miles
Clouds Few 2600 ft
Mostly Cloudy 3200 ft
Heat Index 73 °F
Dew Point 69 °F
Humidity 86%
Rainfall 0.00 in
Snow Depth Not available.
UV 0 out of 12
Pollen 7.70 out of 12
Air Quality Not available.
Flu Activity Not available.
METAR KHPN 310156Z 17006KT 10SM FEW026 BKN032 22/18 A3017 RMK AO2 SLP211 T02220183

More Conditions Fewer Conditions

10-Day Weather Forecast

Almanac

Astronomy

Aug. 30, 2014 Rise Set
Actual Time 6:18 AM EDT 7:30 PM EDT
Civil Twilight 5:50 AM EDT 7:58 PM EDT
Nautical Twilight 5:16 AM EDT 8:32 PM EDT
Astronomical Twilight 4:40 AM EDT 9:07 PM EDT
Moon 11:06 AM EDT (8/30) 9:59 PM EDT (8/30)
Length of Visible Light 14h 07m
Length of Day
13h 11m
Tomorrow will be 2m 36s shorter.
Waxing Crescent, 26% of the Moon is Illuminated
Today
Waxing Crescent
Sep 2
First Quarter
Sep 8
Full
Sep 15
Last Quarter
Sep 24
New

Today's Extremes

State Highs State Lows

Community

WunderPhotos

Upload Photos

1,748,749 photos uploaded!

Nearby

Air Quality

  Air Quality AQ Index Pollutant
Yesterday Good
OZONE
Saturday Good
OZONE
Saturday Good
PM2.5
Sunday Moderate
PM2.5
Sunday Good
OZONE
Monday Moderate
PM2.5
Monday Good
OZONE
Tuesday Moderate
OZONE
Tuesday Moderate
PM2.5

Snow Depth

Station Depth Elevation
No new snow has been reported.

Earthquake Activity

City Distance Mag. Time & Date
No recent earthquake activity has been reported nearby.
Minimum magnitude displayed is 2.5.

Coastal Water Temperatures

Place Temperature
Kings Point, NY 73.0 °F
Bridgeport, CT 73.9 °F

Nearby Weather Stations